sensor_id;sensor_type;location;lat;lon;timestamp;P1;durP1;ratioP1;P2;durP2;ratioP2
34521;SDS011;25561;48.888;8.736;2023-04-24T05:30:34;4.57;;;2.60;;
34521;SDS011;25561;48.888;8.736;2023-04-24T05:33:36;6.43;;;3.20;;
34521;SDS011;25561;48.888;8.736;2023-04-24T05:36:38;4.07;;;1.98;;
34521;SDS011;25561;48.888;8.736;2023-04-24T05:39:41;7.35;;;2.53;;
34521;SDS011;25561;48.888;8.736;2023-04-24T05:42:44;3.13;;;1.73;;
34521;SDS011;25561;48.888;8.736;2023-04-24T05:45:46;4.00;;;1.65;;
34521;SDS011;25561;48.888;8.736;2023-04-24T05:48:48;4.30;;;2.17;;
34521;SDS011;25561;48.888;8.736;2023-04-24T05:51:50;5.47;;;1.92;;
34521;SDS011;25561;48.888;8.736;2023-04-24T05:54:52;6.47;;;2.80;;
34521;SDS011;25561;48.888;8.736;2023-04-24T05:57:55;4.57;;;1.90;;
34521;SDS011;25561;48.888;8.736;2023-04-24T06:00:57;2.40;;;1.67;;
34521;SDS011;25561;48.888;8.736;2023-04-24T06:04:00;3.25;;;1.92;;
34521;SDS011;25561;48.888;8.736;2023-04-24T06:07:03;5.13;;;2.20;;
34521;SDS011;25561;48.888;8.736;2023-04-24T06:10:07;4.05;;;1.60;;
34521;SDS011;25561;48.888;8.736;2023-04-24T06:48:45;3.95;;;2.35;;
34521;SDS011;25561;48.888;8.736;2023-04-24T06:51:47;4.97;;;2.40;;
34521;SDS011;25561;48.888;8.736;2023-04-24T06:54:49;4.00;;;2.00;;
34521;SDS011;25561;48.888;8.736;2023-04-24T06:57:53;5.60;;;2.05;;
34521;SDS011;25561;48.888;8.736;2023-04-24T07:00:57;6.57;;;2.50;;
34521;SDS011;25561;48.888;8.736;2023-04-24T07:03:59;3.20;;;1.92;;
34521;SDS011;25561;48.888;8.736;2023-04-24T07:07:03;6.47;;;2.20;;
34521;SDS011;25561;48.888;8.736;2023-04-24T07:10:07;8.27;;;1.80;;
34521;SDS011;25561;48.888;8.736;2023-04-24T07:13:11;5.25;;;1.98;;
34521;SDS011;25561;48.888;8.736;2023-04-24T07:16:14;2.80;;;2.13;;
34521;SDS011;25561;48.888;8.736;2023-04-24T07:19:16;7.07;;;1.90;;
34521;SDS011;25561;48.888;8.736;2023-04-24T07:22:18;3.20;;;1.60;;
34521;SDS011;25561;48.888;8.736;2023-04-24T07:25:22;7.38;;;1.23;;
34521;SDS011;25561;48.888;8.736;2023-04-24T07:28:24;3.53;;;1.80;;
34521;SDS011;25561;48.888;8.736;2023-04-24T07:31:32;10.27;;;3.60;;
34521;SDS011;25561;48.888;8.736;2023-04-24T07:34:35;3.45;;;2.85;;
34521;SDS011;25561;48.888;8.736;2023-04-24T07:37:36;5.63;;;2.47;;
34521;SDS011;25561;48.888;8.736;2023-04-24T07:40:38;18.55;;;3.90;;
34521;SDS011;25561;48.888;8.736;2023-04-24T07:43:41;7.10;;;2.20;;
34521;SDS011;25561;48.888;8.736;2023-04-24T07:46:43;7.78;;;2.38;;
34521;SDS011;25561;48.888;8.736;2023-04-24T07:49:45;8.00;;;2.67;;
34521;SDS011;25561;48.888;8.736;2023-04-24T07:52:47;5.10;;;1.80;;
34521;SDS011;25561;48.888;8.736;2023-04-24T07:55:49;2.08;;;1.40;;
34521;SDS011;25561;48.888;8.736;2023-04-24T07:58:52;4.10;;;1.70;;
34521;SDS011;25561;48.888;8.736;2023-04-24T08:01:55;8.70;;;1.80;;
34521;SDS011;25561;48.888;8.736;2023-04-24T08:04:58;6.85;;;2.00;;
34521;SDS011;25561;48.888;8.736;2023-04-24T08:08:01;5.85;;;1.95;;
34521;SDS011;25561;48.888;8.736;2023-04-24T08:11:05;5.43;;;1.50;;
34521;SDS011;25561;48.888;8.736;2023-04-24T08:14:07;8.57;;;1.95;;
34521;SDS011;25561;48.888;8.736;2023-04-24T08:17:10;5.20;;;1.42;;
34521;SDS011;25561;48.888;8.736;2023-04-24T08:20:12;4.70;;;1.60;;
34521;SDS011;25561;48.888;8.736;2023-04-24T08:23:17;2.00;;;1.33;;
34521;SDS011;25561;48.888;8.736;2023-04-24T08:26:19;2.67;;;1.27;;
34521;SDS011;25561;48.888;8.736;2023-04-24T08:29:21;3.65;;;1.67;;
34521;SDS011;25561;48.888;8.736;2023-04-24T08:32:25;2.30;;;1.42;;
34521;SDS011;25561;48.888;8.736;2023-04-24T08:35:31;3.38;;;1.25;;
34521;SDS011;25561;48.888;8.736;2023-04-24T08:38:33;3.85;;;1.50;;
34521;SDS011;25561;48.888;8.736;2023-04-24T08:41:36;13.13;;;1.85;;
34521;SDS011;25561;48.888;8.736;2023-04-24T08:44:40;5.65;;;1.85;;
34521;SDS011;25561;48.888;8.736;2023-04-24T08:47:43;6.82;;;1.70;;
34521;SDS011;25561;48.888;8.736;2023-04-24T08:50:47;7.22;;;1.10;;
34521;SDS011;25561;48.888;8.736;2023-04-24T08:53:51;6.13;;;1.42;;
34521;SDS011;25561;48.888;8.736;2023-04-24T08:56:58;2.67;;;1.20;;
34521;SDS011;25561;48.888;8.736;2023-04-24T09:00:02;7.55;;;1.50;;
34521;SDS011;25561;48.888;8.736;2023-04-24T09:03:06;2.88;;;1.13;;
34521;SDS011;25561;48.888;8.736;2023-04-24T09:06:09;2.67;;;1.08;;
34521;SDS011;25561;48.888;8.736;2023-04-24T09:09:13;3.97;;;1.40;;
34521;SDS011;25561;48.888;8.736;2023-04-24T09:12:16;1.70;;;1.13;;
34521;SDS011;25561;48.888;8.736;2023-04-24T09:15:19;4.00;;;1.23;;
34521;SDS011;25561;48.888;8.736;2023-04-24T09:18:21;2.50;;;1.40;;
34521;SDS011;25561;48.888;8.736;2023-04-24T09:21:23;7.13;;;1.65;;
34521;SDS011;25561;48.888;8.736;2023-04-24T09:24:27;3.13;;;1.40;;
34521;SDS011;25561;48.888;8.736;2023-04-24T09:27:29;5.03;;;2.35;;
34521;SDS011;25561;48.888;8.736;2023-04-24T09:30:31;4.35;;;1.30;;
34521;SDS011;25561;48.888;8.736;2023-04-24T09:33:33;4.22;;;1.52;;
34521;SDS011;25561;48.888;8.736;2023-04-24T09:36:37;6.78;;;1.38;;
34521;SDS011;25561;48.888;8.736;2023-04-24T09:39:40;7.07;;;1.40;;
34521;SDS011;25561;48.888;8.736;2023-04-24T09:42:46;2.72;;;1.20;;
34521;SDS011;25561;48.888;8.736;2023-04-24T09:45:56;3.40;;;1.42;;
34521;SDS011;25561;48.888;8.736;2023-04-24T09:49:07;7.75;;;1.30;;
34521;SDS011;25561;48.888;8.736;2023-04-24T09:52:12;6.50;;;1.35;;
34521;SDS011;25561;48.888;8.736;2023-04-24T09:55:18;8.57;;;1.27;;
34521;SDS011;25561;48.888;8.736;2023-04-24T09:58:24;6.03;;;1.77;;
34521;SDS011;25561;48.888;8.736;2023-04-24T10:01:31;5.85;;;1.55;;
34521;SDS011;25561;48.888;8.736;2023-04-24T10:04:33;3.95;;;1.30;;
34521;SDS011;25561;48.888;8.736;2023-04-24T10:07:38;6.28;;;1.67;;
34521;SDS011;25561;48.888;8.736;2023-04-24T10:10:41;5.38;;;1.70;;
34521;SDS011;25561;48.888;8.736;2023-04-24T10:16:47;2.05;;;1.27;;
34521;SDS011;25561;48.888;8.736;2023-04-24T10:19:51;3.10;;;1.65;;
34521;SDS011;25561;48.888;8.736;2023-04-24T10:22:54;6.03;;;1.90;;
34521;SDS011;25561;48.888;8.736;2023-04-24T10:25:56;5.78;;;1.55;;
34521;SDS011;25561;48.888;8.736;2023-04-24T10:29:00;11.18;;;2.10;;
34521;SDS011;25561;48.888;8.736;2023-04-24T10:32:02;3.40;;;1.92;;
34521;SDS011;25561;48.888;8.736;2023-04-24T10:35:06;4.82;;;1.60;;
34521;SDS011;25561;48.888;8.736;2023-04-24T10:38:10;4.00;;;1.70;;
34521;SDS011;25561;48.888;8.736;2023-04-24T10:41:14;7.35;;;1.50;;
34521;SDS011;25561;48.888;8.736;2023-04-24T10:44:24;2.65;;;1.20;;
34521;SDS011;25561;48.888;8.736;2023-04-24T10:47:29;4.10;;;1.70;;
34521;SDS011;25561;48.888;8.736;2023-04-24T10:50:43;2.25;;;1.63;;
34521;SDS011;25561;48.888;8.736;2023-04-24T10:53:47;4.45;;;1.75;;
34521;SDS011;25561;48.888;8.736;2023-04-24T10:56:51;2.75;;;1.40;;
34521;SDS011;25561;48.888;8.736;2023-04-24T11:03:32;2.83;;;1.67;;
34521;SDS011;25561;48.888;8.736;2023-04-24T11:06:36;1.63;;;1.30;;
34521;SDS011;25561;48.888;8.736;2023-04-24T11:09:38;3.10;;;1.50;;
34521;SDS011;25561;48.888;8.736;2023-04-24T11:12:42;3.42;;;1.50;;
34521;SDS011;25561;48.888;8.736;2023-04-24T11:15:44;3.47;;;1.70;;
34521;SDS011;25561;48.888;8.736;2023-04-24T11:22:14;2.20;;;1.45;;
34521;SDS011;25561;48.888;8.736;2023-04-24T11:25:18;4.78;;;1.67;;
34521;SDS011;25561;48.888;8.736;2023-04-24T11:28:19;2.83;;;1.63;;
34521;SDS011;25561;48.888;8.736;2023-04-24T11:31:38;5.40;;;2.30;;
34521;SDS011;25561;48.888;8.736;2023-04-24T11:34:41;4.10;;;2.50;;
34521;SDS011;25561;48.888;8.736;2023-04-24T11:37:47;4.82;;;2.30;;
34521;SDS011;25561;48.888;8.736;2023-04-24T11:40:54;7.72;;;2.22;;
34521;SDS011;25561;48.888;8.736;2023-04-24T11:43:56;4.88;;;1.80;;
34521;SDS011;25561;48.888;8.736;2023-04-24T11:46:59;3.80;;;1.70;;
34521;SDS011;25561;48.888;8.736;2023-04-24T11:50:02;4.35;;;1.67;;
34521;SDS011;25561;48.888;8.736;2023-04-24T11:53:06;3.40;;;1.60;;
34521;SDS011;25561;48.888;8.736;2023-04-24T11:56:12;2.25;;;1.20;;
34521;SDS011;25561;48.888;8.736;2023-04-24T11:59:20;3.90;;;1.50;;
34521;SDS011;25561;48.888;8.736;2023-04-24T12:05:28;2.85;;;1.45;;
34521;SDS011;25561;48.888;8.736;2023-04-24T12:08:33;3.13;;;1.77;;
34521;SDS011;25561;48.888;8.736;2023-04-24T12:11:38;1.95;;;1.60;;
34521;SDS011;25561;48.888;8.736;2023-04-24T12:14:55;3.70;;;1.90;;
34521;SDS011;25561;48.888;8.736;2023-04-24T12:17:59;5.18;;;2.05;;
34521;SDS011;25561;48.888;8.736;2023-04-24T12:21:14;9.60;;;1.98;;
34521;SDS011;25561;48.888;8.736;2023-04-24T12:24:23;6.47;;;2.40;;
34521;SDS011;25561;48.888;8.736;2023-04-24T12:27:26;7.65;;;2.20;;
34521;SDS011;25561;48.888;8.736;2023-04-24T12:30:38;5.85;;;1.55;;
34521;SDS011;25561;48.888;8.736;2023-04-24T12:33:43;1.83;;;1.60;;
34521;SDS011;25561;48.888;8.736;2023-04-24T12:36:45;6.72;;;2.00;;
34521;SDS011;25561;48.888;8.736;2023-04-24T12:43:21;5.55;;;2.70;;
34521;SDS011;25561;48.888;8.736;2023-04-24T12:46:23;4.15;;;2.00;;
34521;SDS011;25561;48.888;8.736;2023-04-24T12:49:26;4.80;;;2.42;;
34521;SDS011;25561;48.888;8.736;2023-04-24T12:52:37;7.75;;;2.30;;
34521;SDS011;25561;48.888;8.736;2023-04-24T12:55:42;5.70;;;2.30;;
34521;SDS011;25561;48.888;8.736;2023-04-24T12:58:43;5.00;;;2.60;;
34521;SDS011;25561;48.888;8.736;2023-04-24T13:01:45;7.22;;;2.40;;
34521;SDS011;25561;48.888;8.736;2023-04-24T13:04:47;6.97;;;2.88;;
34521;SDS011;25561;48.888;8.736;2023-04-24T13:07:50;5.82;;;2.40;;
34521;SDS011;25561;48.888;8.736;2023-04-24T13:10:52;8.25;;;2.75;;
34521;SDS011;25561;48.888;8.736;2023-04-24T13:13:55;4.25;;;2.38;;
34521;SDS011;25561;48.888;8.736;2023-04-24T13:16:57;3.55;;;2.40;;
34521;SDS011;25561;48.888;8.736;2023-04-24T13:19:59;4.05;;;2.40;;
34521;SDS011;25561;48.888;8.736;2023-04-24T13:23:02;5.40;;;2.90;;
34521;SDS011;25561;48.888;8.736;2023-04-24T13:26:03;7.05;;;2.67;;
34521;SDS011;25561;48.888;8.736;2023-04-24T13:29:06;5.55;;;2.60;;
34521;SDS011;25561;48.888;8.736;2023-04-24T13:32:09;5.28;;;2.15;;
34521;SDS011;25561;48.888;8.736;2023-04-24T13:35:11;7.20;;;2.47;;
34521;SDS011;25561;48.888;8.736;2023-04-24T13:38:14;10.48;;;2.60;;
34521;SDS011;25561;48.888;8.736;2023-04-24T13:41:16;7.25;;;2.60;;
34521;SDS011;25561;48.888;8.736;2023-04-24T13:44:18;4.88;;;2.13;;
34521;SDS011;25561;48.888;8.736;2023-04-24T13:47:21;6.03;;;2.42;;
34521;SDS011;25561;48.888;8.736;2023-04-24T13:50:23;4.95;;;2.60;;
34521;SDS011;25561;48.888;8.736;2023-04-24T13:53:25;4.78;;;2.60;;
34521;SDS011;25561;48.888;8.736;2023-04-24T13:56:27;8.50;;;2.45;;
34521;SDS011;25561;48.888;8.736;2023-04-24T13:59:29;4.95;;;2.47;;
34521;SDS011;25561;48.888;8.736;2023-04-24T14:02:30;4.55;;;1.95;;
34521;SDS011;25561;48.888;8.736;2023-04-24T14:05:33;2.58;;;1.92;;
34521;SDS011;25561;48.888;8.736;2023-04-24T14:08:37;6.95;;;2.30;;
34521;SDS011;25561;48.888;8.736;2023-04-24T14:11:39;5.97;;;2.13;;
34521;SDS011;25561;48.888;8.736;2023-04-24T14:14:42;3.13;;;2.17;;
34521;SDS011;25561;48.888;8.736;2023-04-24T14:17:43;5.47;;;2.15;;
34521;SDS011;25561;48.888;8.736;2023-04-24T14:20:46;4.43;;;1.85;;
34521;SDS011;25561;48.888;8.736;2023-04-24T14:23:48;2.17;;;1.60;;
34521;SDS011;25561;48.888;8.736;2023-04-24T14:26:50;4.60;;;2.00;;
34521;SDS011;25561;48.888;8.736;2023-04-24T14:29:52;3.20;;;1.70;;
34521;SDS011;25561;48.888;8.736;2023-04-24T14:32:54;3.67;;;1.95;;
34521;SDS011;25561;48.888;8.736;2023-04-24T14:35:56;9.20;;;1.75;;
34521;SDS011;25561;48.888;8.736;2023-04-24T14:38:58;4.13;;;2.30;;
34521;SDS011;25561;48.888;8.736;2023-04-24T14:42:01;4.82;;;2.05;;
34521;SDS011;25561;48.888;8.736;2023-04-24T14:45:03;4.00;;;2.30;;
34521;SDS011;25561;48.888;8.736;2023-04-24T14:48:05;3.10;;;2.10;;
34521;SDS011;25561;48.888;8.736;2023-04-24T14:51:08;4.03;;;1.92;;
34521;SDS011;25561;48.888;8.736;2023-04-24T14:54:10;3.10;;;1.52;;
34521;SDS011;25561;48.888;8.736;2023-04-24T14:57:12;4.47;;;1.70;;
34521;SDS011;25561;48.888;8.736;2023-04-24T15:00:16;3.75;;;1.38;;
34521;SDS011;25561;48.888;8.736;2023-04-24T15:03:19;3.15;;;1.40;;
34521;SDS011;25561;48.888;8.736;2023-04-24T15:06:23;2.65;;;1.50;;
34521;SDS011;25561;48.888;8.736;2023-04-24T15:09:26;2.55;;;1.40;;
34521;SDS011;25561;48.888;8.736;2023-04-24T15:12:28;2.28;;;1.70;;
34521;SDS011;25561;48.888;8.736;2023-04-24T15:15:30;2.75;;;1.70;;
34521;SDS011;25561;48.888;8.736;2023-04-24T15:18:32;3.83;;;1.58;;
34521;SDS011;25561;48.888;8.736;2023-04-24T15:21:35;2.15;;;1.70;;
34521;SDS011;25561;48.888;8.736;2023-04-24T15:24:37;4.32;;;2.00;;
34521;SDS011;25561;48.888;8.736;2023-04-24T15:27:40;6.63;;;1.55;;
34521;SDS011;25561;48.888;8.736;2023-04-24T15:30:43;5.03;;;1.65;;
34521;SDS011;25561;48.888;8.736;2023-04-24T15:33:45;2.05;;;1.10;;
34521;SDS011;25561;48.888;8.736;2023-04-24T15:36:47;7.18;;;1.90;;
34521;SDS011;25561;48.888;8.736;2023-04-24T15:39:48;3.78;;;1.60;;
34521;SDS011;25561;48.888;8.736;2023-04-24T15:42:51;4.93;;;2.20;;
34521;SDS011;25561;48.888;8.736;2023-04-24T15:45:53;4.97;;;1.95;;
34521;SDS011;25561;48.888;8.736;2023-04-24T15:48:55;1.70;;;1.52;;
34521;SDS011;25561;48.888;8.736;2023-04-24T15:51:57;1.70;;;1.30;;
34521;SDS011;25561;48.888;8.736;2023-04-24T15:54:59;5.15;;;1.88;;
34521;SDS011;25561;48.888;8.736;2023-04-24T15:58:01;2.95;;;1.50;;
